createdAt,value
2023-02-06T00:00:11.102Z,11.47
2023-02-06T00:02:37.603Z,11.17
2023-02-06T00:05:04.233Z,10.50
2023-02-06T00:07:30.731Z,11.60
2023-02-06T00:09:57.181Z,10.00
2023-02-06T00:12:24.315Z,11.97
2023-02-06T00:14:51.014Z,10.90
2023-02-06T00:17:17.989Z,11.17
2023-02-06T00:19:45.080Z,11.07
2023-02-06T00:22:13.941Z,10.80
2023-02-06T00:24:43.970Z,11.47
2023-02-06T00:27:11.233Z,11.90
2023-02-06T00:29:38.322Z,12.10
2023-02-06T00:32:04.926Z,11.23
2023-02-06T00:34:32.005Z,11.43
2023-02-06T00:36:59.125Z,11.80
2023-02-06T00:39:26.648Z,12.43
2023-02-06T00:41:56.073Z,12.07
2023-02-06T00:44:23.649Z,12.27
2023-02-06T00:46:50.707Z,11.20
2023-02-06T00:49:17.744Z,10.83
2023-02-06T00:51:44.855Z,11.97
2023-02-06T00:54:11.804Z,13.27
2023-02-06T00:56:38.871Z,13.10
2023-02-06T00:59:05.685Z,13.60
2023-02-06T01:01:32.628Z,12.83
2023-02-06T01:03:59.693Z,14.83
2023-02-06T01:06:26.831Z,13.33
2023-02-06T01:08:53.946Z,14.40
2023-02-06T01:11:22.292Z,12.53
2023-02-06T01:13:49.706Z,14.30
2023-02-06T01:16:18.561Z,11.50
2023-02-06T01:18:45.626Z,12.47
2023-02-06T01:21:13.817Z,13.60
2023-02-06T01:23:41.268Z,12.03
2023-02-06T01:26:09.475Z,13.43
2023-02-06T01:28:37.690Z,12.97
2023-02-06T01:31:14.727Z,13.27
2023-02-06T01:33:41.671Z,11.80
2023-02-06T01:36:08.900Z,13.23
2023-02-06T01:38:36.089Z,14.77
2023-02-06T01:41:03.722Z,13.07
2023-02-06T01:43:33.760Z,12.47
2023-02-06T01:46:00.581Z,13.07
2023-02-06T01:48:42.697Z,13.47
2023-02-06T01:51:11.722Z,17.20
2023-02-06T01:53:39.288Z,17.17
2023-02-06T01:56:07.365Z,16.23
2023-02-06T01:58:39.298Z,14.70
2023-02-06T02:01:06.965Z,19.43
2023-02-06T02:03:36.277Z,18.60
2023-02-06T02:06:07.228Z,17.07
2023-02-06T02:08:41.721Z,17.90
2023-02-06T02:11:09.887Z,39.13
2023-02-06T02:13:38.661Z,21.50
2023-02-06T02:16:11.794Z,15.33
2023-02-06T02:18:48.469Z,15.70
2023-02-06T02:21:18.180Z,17.57
2023-02-06T02:24:03.550Z,31.77
2023-02-06T02:26:42.968Z,31.07
2023-02-06T02:29:36.433Z,23.23
2023-02-06T02:32:09.369Z,17.80
2023-02-06T02:34:48.316Z,15.50
2023-02-06T02:37:24.637Z,15.20
2023-02-06T02:39:57.877Z,18.30
2023-02-06T02:42:51.142Z,16.55
2023-02-06T02:45:34.031Z,15.85
2023-02-06T02:48:06.976Z,15.40
2023-02-06T02:50:34.873Z,17.52
2023-02-06T02:53:03.035Z,15.87
2023-02-06T02:55:29.875Z,15.90
2023-02-06T02:58:00.058Z,16.23
2023-02-06T03:00:26.688Z,17.27
2023-02-06T03:02:54.770Z,15.73
2023-02-06T03:05:24.881Z,17.20
2023-02-06T03:08:10.336Z,16.20
2023-02-06T03:10:48.700Z,17.20
2023-02-06T03:13:31.136Z,18.00
2023-02-06T03:16:17.654Z,16.50
2023-02-06T03:18:49.096Z,16.33
2023-02-06T03:21:18.263Z,15.67
2023-02-06T03:23:46.374Z,17.33
2023-02-06T03:26:18.959Z,16.77
2023-02-06T03:28:48.245Z,15.80
2023-02-06T03:31:20.709Z,16.87
2023-02-06T03:33:50.412Z,15.47
2023-02-06T03:36:18.860Z,16.13
2023-02-06T03:38:47.224Z,14.83
2023-02-06T03:41:15.938Z,15.63
2023-02-06T03:43:44.931Z,16.13
2023-02-06T03:46:13.326Z,15.53
2023-02-06T03:48:42.723Z,14.30
2023-02-06T03:51:14.974Z,12.73
2023-02-06T03:53:43.751Z,13.17
2023-02-06T03:56:12.318Z,12.20
2023-02-06T03:58:39.357Z,10.93
2023-02-06T04:01:07.432Z,10.30
2023-02-06T04:03:34.626Z,11.43
2023-02-06T04:06:01.804Z,10.87
2023-02-06T04:08:28.848Z,9.83
2023-02-06T04:10:55.833Z,10.77
2023-02-06T04:13:23.001Z,10.17
2023-02-06T04:15:50.125Z,11.37
2023-02-06T04:18:16.740Z,11.43
2023-02-06T04:20:43.202Z,11.67
2023-02-06T04:23:10.381Z,13.30
2023-02-06T04:25:37.662Z,12.57
2023-02-06T04:28:05.056Z,11.70
2023-02-06T04:30:32.275Z,12.00
2023-02-06T04:32:59.264Z,13.33
2023-02-06T04:35:26.332Z,11.30
2023-02-06T04:37:53.615Z,12.20
2023-02-06T04:40:20.897Z,11.63
2023-02-06T04:42:48.100Z,12.27
2023-02-06T04:45:14.885Z,12.23
2023-02-06T04:47:44.818Z,11.77
2023-02-06T04:50:11.957Z,12.37
2023-02-06T04:52:39.011Z,11.93
2023-02-06T04:55:06.077Z,14.00
2023-02-06T04:57:33.122Z,12.80
2023-02-06T04:59:59.611Z,13.73
2023-02-06T05:02:26.681Z,12.57
2023-02-06T05:04:53.837Z,12.60
2023-02-06T05:07:21.043Z,12.90
2023-02-06T05:09:48.224Z,12.90
2023-02-06T05:12:15.271Z,12.23
2023-02-06T05:14:42.273Z,13.17
2023-02-06T05:17:09.053Z,14.10
2023-02-06T05:19:35.987Z,12.40
2023-02-06T05:22:03.101Z,12.77
2023-02-06T05:24:30.371Z,11.87
2023-02-06T05:27:00.700Z,13.57
2023-02-06T05:29:27.985Z,12.30
2023-02-06T05:31:55.176Z,11.50
2023-02-06T05:34:22.330Z,13.57
2023-02-06T05:36:49.394Z,11.77
2023-02-06T05:39:16.485Z,12.57
2023-02-06T05:41:43.679Z,15.17
2023-02-06T05:44:11.416Z,12.93
2023-02-06T05:46:38.853Z,12.73
2023-02-06T05:49:05.875Z,11.50
2023-02-06T05:51:36.390Z,10.90
2023-02-06T05:54:03.639Z,12.47
2023-02-06T05:56:30.825Z,13.17
2023-02-06T05:58:57.298Z,15.90
2023-02-06T06:01:24.356Z,13.23
2023-02-06T06:03:51.893Z,13.13
2023-02-06T06:06:19.249Z,12.43
2023-02-06T06:08:46.288Z,14.07
2023-02-06T06:11:13.626Z,12.87
2023-02-06T06:13:40.883Z,10.73
2023-02-06T06:16:08.021Z,10.87
2023-02-06T06:18:35.089Z,9.67
2023-02-06T06:21:02.215Z,10.70
2023-02-06T06:23:29.186Z,9.83
2023-02-06T06:25:56.181Z,9.87
2023-02-06T06:28:23.493Z,10.10
2023-02-06T06:30:50.447Z,9.63
2023-02-06T06:33:17.974Z,10.63
2023-02-06T06:35:44.977Z,11.23
2023-02-06T06:38:11.932Z,10.20
2023-02-06T06:40:39.963Z,10.40
2023-02-06T06:43:06.576Z,10.20
2023-02-06T06:45:33.466Z,11.40
2023-02-06T06:48:00.639Z,10.87
2023-02-06T06:50:27.877Z,10.20
2023-02-06T06:52:54.984Z,9.93
2023-02-06T06:55:22.141Z,9.40
2023-02-06T06:57:49.251Z,10.10
2023-02-06T07:00:17.128Z,11.73
2023-02-06T07:02:44.565Z,13.63
2023-02-06T07:05:11.876Z,14.20
2023-02-06T07:07:39.560Z,14.07
2023-02-06T07:10:07.292Z,15.80
2023-02-06T07:12:34.852Z,19.63
2023-02-06T07:15:01.880Z,23.00
2023-02-06T07:17:28.838Z,19.00
2023-02-06T07:19:56.043Z,16.00
2023-02-06T07:22:22.889Z,21.63
2023-02-06T07:24:49.513Z,24.47
2023-02-06T07:27:16.655Z,27.27
2023-02-06T07:29:43.976Z,32.90
2023-02-06T07:32:10.549Z,27.70
2023-02-06T07:34:37.976Z,31.07
2023-02-06T07:37:05.015Z,35.77
2023-02-06T07:39:31.547Z,36.97
2023-02-06T07:41:58.506Z,33.73
2023-02-06T07:44:24.995Z,33.17
2023-02-06T07:46:53.314Z,28.47
2023-02-06T07:49:20.449Z,22.07
2023-02-06T07:51:46.941Z,17.53
2023-02-06T07:54:13.486Z,21.93
2023-02-06T07:56:40.657Z,54.17
2023-02-06T07:59:07.214Z,55.63
2023-02-06T08:01:34.682Z,44.47
2023-02-06T08:04:01.439Z,36.67
2023-02-06T08:06:28.021Z,26.33
2023-02-06T08:08:56.073Z,21.77
2023-02-06T08:11:25.488Z,21.07
2023-02-06T08:13:52.018Z,20.87
2023-02-06T08:16:20.669Z,21.20
2023-02-06T08:18:47.612Z,19.77
2023-02-06T08:21:16.127Z,20.47
2023-02-06T08:23:43.456Z,22.67
2023-02-06T08:26:10.492Z,30.43
2023-02-06T08:28:37.640Z,29.33
2023-02-06T08:31:10.528Z,29.03
2023-02-06T08:33:37.664Z,22.85
2023-02-06T08:36:04.948Z,21.37
2023-02-06T08:38:32.053Z,16.97
2023-02-06T08:40:58.760Z,15.10
2023-02-06T08:43:25.724Z,16.23
2023-02-06T08:45:53.508Z,14.27
2023-02-06T08:48:20.718Z,12.87
2023-02-06T08:50:50.086Z,13.97
2023-02-06T08:53:16.617Z,12.07
2023-02-06T08:55:43.658Z,11.37
2023-02-06T08:58:10.104Z,10.43
2023-02-06T09:00:36.824Z,11.27
2023-02-06T09:03:03.364Z,10.77
2023-02-06T09:05:30.417Z,10.40
2023-02-06T09:07:57.143Z,10.63
2023-02-06T09:10:27.829Z,11.97
2023-02-06T09:12:55.441Z,12.23
2023-02-06T09:15:22.012Z,9.27
2023-02-06T09:17:48.974Z,8.13
2023-02-06T09:20:16.194Z,12.43
2023-02-06T09:22:44.670Z,9.20
2023-02-06T09:25:11.302Z,9.70
2023-02-06T09:27:38.250Z,10.37
2023-02-06T09:30:05.332Z,13.90
2023-02-06T09:32:32.430Z,9.43
2023-02-06T09:34:59.537Z,8.67
2023-02-06T09:37:26.261Z,8.30
2023-02-06T09:39:53.533Z,10.80
2023-02-06T09:42:30.978Z,8.37
2023-02-06T09:45:14.370Z,9.87
2023-02-06T09:47:47.384Z,8.70
2023-02-06T09:50:17.508Z,8.88
2023-02-06T09:52:57.105Z,8.50
2023-02-06T09:55:41.365Z,8.40
2023-02-06T09:58:16.562Z,7.30
2023-02-06T10:00:55.965Z,7.60
2023-02-06T10:03:41.607Z,6.87
2023-02-06T10:06:20.426Z,7.03
2023-02-06T10:08:53.311Z,7.53
2023-02-06T10:11:33.115Z,6.70
2023-02-06T10:14:02.517Z,7.47
2023-02-06T10:16:40.125Z,7.27
2023-02-06T10:19:14.407Z,7.00
2023-02-06T10:21:45.403Z,8.03
2023-02-06T10:24:17.955Z,6.10
2023-02-06T10:26:46.867Z,7.43
2023-02-06T10:29:21.675Z,6.33
2023-02-06T10:31:54.728Z,7.93
2023-02-06T10:34:28.164Z,6.13
2023-02-06T10:37:15.934Z,5.88
2023-02-06T10:40:00.517Z,6.63
2023-02-06T10:42:45.570Z,6.60
2023-02-06T10:45:20.110Z,7.13
2023-02-06T10:47:55.386Z,7.03
2023-02-06T10:50:26.519Z,8.20
2023-02-06T10:52:55.545Z,7.10
2023-02-06T10:55:30.120Z,51.17
2023-02-06T10:58:11.116Z,11.63
2023-02-06T11:00:39.300Z,7.10
2023-02-06T11:03:11.304Z,6.68
2023-02-06T11:05:38.910Z,8.13
2023-02-06T11:08:14.317Z,11.90
2023-02-06T11:10:41.541Z,30.58
2023-02-06T11:13:19.602Z,28.63
2023-02-06T11:16:05.170Z,12.38
2023-02-06T11:18:35.266Z,38.22
2023-02-06T11:21:03.094Z,10.55
2023-02-06T11:23:31.368Z,7.57
2023-02-06T11:26:05.341Z,7.18
2023-02-06T11:28:34.923Z,6.72
2023-02-06T11:31:03.017Z,5.60
2023-02-06T11:33:36.605Z,6.40
2023-02-06T11:36:05.708Z,6.32
2023-02-06T11:38:33.129Z,6.35
2023-02-06T11:41:17.475Z,7.03
2023-02-06T11:43:45.353Z,8.00
2023-02-06T11:46:39.508Z,7.35
2023-02-06T11:49:25.405Z,6.60
2023-02-06T11:51:54.369Z,8.00
2023-02-06T11:54:21.310Z,7.68
2023-02-06T11:57:08.486Z,7.30
2023-02-06T11:59:37.124Z,6.50
2023-02-06T12:02:22.967Z,6.47
2023-02-06T12:04:50.154Z,6.45
2023-02-06T12:07:21.934Z,6.22
2023-02-06T12:09:49.167Z,5.40
2023-02-06T12:12:15.654Z,6.00
2023-02-06T12:14:47.500Z,6.97
2023-02-06T12:17:20.687Z,5.80
2023-02-06T12:19:51.165Z,7.22
2023-02-06T12:22:21.488Z,6.20
2023-02-06T12:24:55.872Z,5.93
2023-02-06T12:27:22.937Z,5.55
2023-02-06T12:29:57.932Z,5.95
2023-02-06T12:32:28.677Z,5.97
2023-02-06T12:34:58.184Z,5.82
2023-02-06T12:37:26.778Z,6.20
2023-02-06T12:39:54.275Z,5.88
2023-02-06T12:42:29.499Z,5.22
2023-02-06T12:45:02.418Z,5.65
2023-02-06T12:47:41.285Z,6.30
2023-02-06T12:50:27.068Z,5.78
2023-02-06T12:53:00.683Z,6.10
2023-02-06T12:55:36.932Z,6.10
2023-02-06T12:58:05.327Z,5.97
2023-02-06T13:00:39.524Z,6.40
2023-02-06T13:03:12.378Z,5.50
2023-02-06T13:05:45.534Z,5.15
2023-02-06T13:08:21.651Z,5.78
2023-02-06T13:10:50.301Z,6.20
2023-02-06T13:13:28.282Z,4.65
2023-02-06T13:15:56.924Z,5.03
2023-02-06T13:18:42.313Z,5.80
2023-02-06T13:21:21.970Z,5.43
2023-02-06T13:24:15.482Z,5.05
2023-02-06T13:26:56.809Z,5.97
2023-02-06T13:29:34.163Z,5.43
2023-02-06T13:32:13.451Z,4.50
2023-02-06T13:34:43.227Z,4.57
2023-02-06T13:37:28.802Z,5.23
2023-02-06T13:40:14.672Z,6.20
2023-02-06T13:42:49.684Z,5.10
2023-02-06T13:45:20.006Z,5.00
2023-02-06T13:47:56.082Z,5.10
2023-02-06T13:50:36.035Z,5.20
2023-02-06T13:53:14.992Z,5.80
2023-02-06T13:55:44.969Z,8.83
2023-02-06T13:58:23.787Z,9.50
2023-02-06T14:00:51.328Z,35.83
2023-02-06T14:03:34.950Z,10.23
2023-02-06T14:06:12.230Z,11.40
2023-02-06T14:08:39.296Z,8.10
2023-02-06T14:11:06.513Z,6.83
2023-02-06T14:13:41.097Z,20.27
2023-02-06T14:16:07.628Z,73.40
2023-02-06T14:18:43.486Z,38.30
2023-02-06T14:21:10.088Z,14.83
2023-02-06T14:23:47.900Z,9.03
2023-02-06T14:26:20.788Z,6.03
2023-02-06T14:28:57.337Z,5.72
2023-02-06T14:31:45.015Z,6.00
2023-02-06T14:34:33.667Z,5.57
2023-02-06T14:37:00.720Z,36.70
2023-02-06T14:39:37.424Z,39.33
2023-02-06T14:42:08.781Z,9.27
2023-02-06T14:44:36.279Z,42.87
2023-02-06T14:47:03.640Z,18.20
2023-02-06T14:49:33.179Z,40.63
2023-02-06T14:52:00.823Z,185.27
2023-02-06T14:54:30.756Z,219.20
2023-02-06T14:56:58.999Z,66.13
2023-02-06T14:59:26.482Z,341.57
2023-02-06T15:01:54.794Z,139.40
2023-02-06T15:04:23.330Z,31.77
2023-02-06T15:07:00.718Z,225.70
2023-02-06T15:09:30.963Z,177.10
2023-02-06T15:11:59.506Z,100.73
2023-02-06T15:14:30.941Z,37.67
2023-02-06T15:17:00.433Z,18.03
2023-02-06T15:19:29.117Z,52.67
2023-02-06T15:22:16.581Z,31.87
2023-02-06T15:25:02.499Z,11.13
2023-02-06T15:27:29.750Z,5.47
2023-02-06T15:29:57.521Z,4.37
2023-02-06T15:32:27.904Z,9.83
2023-02-06T15:34:55.040Z,5.57
2023-02-06T15:37:30.007Z,5.77
2023-02-06T15:40:07.032Z,6.00
2023-02-06T15:42:34.295Z,10.50
2023-02-06T15:45:01.634Z,12.57
2023-02-06T15:47:29.248Z,15.33
2023-02-06T15:49:57.130Z,16.40
2023-02-06T15:52:37.697Z,19.70
2023-02-06T15:55:05.489Z,20.27
2023-02-06T15:57:33.127Z,20.17
2023-02-06T16:00:00.415Z,18.90
2023-02-06T16:02:35.491Z,19.10
2023-02-06T16:05:03.967Z,24.13
2023-02-06T16:07:33.071Z,22.03
2023-02-06T16:10:06.449Z,26.27
2023-02-06T16:12:38.330Z,24.23
2023-02-06T16:15:25.771Z,27.60
2023-02-06T16:17:53.059Z,34.37
2023-02-06T16:20:33.042Z,32.30
2023-02-06T16:23:18.143Z,32.07
2023-02-06T16:25:46.478Z,31.73
2023-02-06T16:28:24.204Z,30.67
2023-02-06T16:30:55.164Z,32.77
2023-02-06T16:33:30.298Z,30.23
2023-02-06T16:35:56.768Z,30.33
2023-02-06T16:38:23.236Z,29.10
2023-02-06T16:40:51.305Z,26.80
2023-02-06T16:43:18.536Z,25.47
2023-02-06T16:45:45.193Z,21.60
2023-02-06T16:48:12.895Z,18.67
2023-02-06T16:50:40.602Z,15.63
2023-02-06T16:53:11.292Z,13.87
2023-02-06T16:55:38.362Z,14.07
2023-02-06T16:58:05.652Z,15.03
2023-02-06T17:00:32.215Z,14.53
2023-02-06T17:02:59.789Z,12.67
2023-02-06T17:05:28.826Z,13.87
2023-02-06T17:07:55.518Z,12.37
2023-02-06T17:10:25.617Z,15.33
2023-02-06T17:12:53.001Z,13.03
2023-02-06T17:15:20.213Z,10.90
2023-02-06T17:17:46.813Z,11.03
2023-02-06T17:20:34.101Z,14.03
2023-02-06T17:23:00.997Z,27.13
2023-02-06T17:25:30.114Z,34.37
2023-02-06T17:27:57.296Z,33.97
2023-02-06T17:30:25.181Z,36.33
2023-02-06T17:32:52.076Z,33.60
2023-02-06T17:35:19.687Z,44.43
2023-02-06T17:37:46.916Z,49.83
2023-02-06T17:40:18.376Z,73.73
2023-02-06T17:42:45.831Z,59.63
2023-02-06T17:45:12.861Z,69.10
2023-02-06T17:47:39.587Z,46.27
2023-02-06T17:50:07.266Z,33.50
2023-02-06T17:52:33.799Z,30.83
2023-02-06T17:55:00.471Z,97.90
2023-02-06T17:57:27.065Z,122.70
2023-02-06T17:59:53.650Z,116.13
2023-02-06T18:02:20.737Z,80.63
2023-02-06T18:04:51.461Z,52.00
2023-02-06T18:07:18.989Z,46.70
2023-02-06T18:09:48.118Z,45.47
2023-02-06T18:12:16.652Z,42.27
2023-02-06T18:14:44.122Z,37.83
2023-02-06T18:17:11.868Z,41.53
2023-02-06T18:19:43.600Z,42.93
2023-02-06T18:22:12.281Z,49.67
2023-02-06T18:24:39.744Z,51.77
2023-02-06T18:27:07.805Z,45.43
2023-02-06T18:29:49.056Z,38.37
2023-02-06T18:32:17.386Z,25.63
2023-02-06T18:34:44.859Z,26.73
2023-02-06T18:37:12.008Z,36.13
2023-02-06T18:39:40.065Z,42.13
2023-02-06T18:42:25.572Z,42.27
2023-02-06T18:44:52.584Z,42.57
2023-02-06T18:47:20.692Z,60.70
2023-02-06T18:49:48.259Z,82.10
2023-02-06T18:52:15.715Z,79.90
2023-02-06T18:54:42.890Z,93.50
2023-02-06T18:57:10.683Z,78.50
2023-02-06T18:59:38.509Z,57.30
2023-02-06T19:02:06.927Z,64.60
2023-02-06T19:04:35.673Z,60.13
2023-02-06T19:07:02.670Z,65.43
2023-02-06T19:09:29.830Z,69.63
2023-02-06T19:11:57.036Z,68.40
2023-02-06T19:14:25.976Z,67.20
2023-02-06T19:16:53.348Z,58.90
2023-02-06T19:19:20.994Z,52.90
2023-02-06T19:21:47.970Z,54.70
2023-02-06T19:24:16.273Z,52.43
2023-02-06T19:26:43.364Z,60.93
2023-02-06T19:29:12.180Z,58.87
2023-02-06T19:31:40.927Z,67.40
2023-02-06T19:34:08.018Z,75.87
2023-02-06T19:36:35.551Z,92.80
2023-02-06T19:39:04.568Z,114.63
2023-02-06T19:41:32.960Z,109.93
2023-02-06T19:44:03.229Z,126.87
2023-02-06T19:46:30.586Z,103.47
2023-02-06T19:48:58.583Z,85.27
2023-02-06T19:51:28.183Z,72.80
2023-02-06T19:53:56.485Z,77.40
2023-02-06T19:56:24.009Z,76.00
2023-02-06T19:59:05.231Z,58.23
2023-02-06T20:01:32.551Z,54.90
2023-02-06T20:04:01.176Z,49.73
2023-02-06T20:06:29.836Z,43.47
2023-02-06T20:08:57.589Z,42.67
2023-02-06T20:11:24.702Z,38.40
2023-02-06T20:13:56.063Z,26.57
2023-02-06T20:16:25.302Z,23.10
2023-02-06T20:18:52.598Z,24.10
2023-02-06T20:21:39.324Z,26.87
2023-02-06T20:24:08.402Z,28.07
2023-02-06T20:26:37.260Z,27.23
2023-02-06T20:29:05.254Z,28.13
2023-02-06T20:31:33.808Z,24.87
2023-02-06T20:34:01.382Z,24.47
2023-02-06T20:36:29.875Z,22.27
2023-02-06T20:38:59.413Z,18.57
2023-02-06T20:41:27.799Z,17.83
2023-02-06T20:43:57.113Z,18.30
2023-02-06T20:46:26.333Z,18.30
2023-02-06T20:48:55.501Z,18.97
2023-02-06T20:51:22.700Z,17.53
2023-02-06T20:53:50.178Z,25.00
2023-02-06T20:56:17.956Z,29.53
2023-02-06T20:58:45.423Z,20.03
2023-02-06T21:01:13.734Z,23.37
2023-02-06T21:03:41.469Z,23.60
2023-02-06T21:06:08.473Z,35.40
2023-02-06T21:08:36.073Z,25.73
2023-02-06T21:11:03.704Z,23.83
2023-02-06T21:13:30.867Z,17.70
2023-02-06T21:15:58.668Z,22.80
2023-02-06T21:18:27.704Z,28.90
2023-02-06T21:20:56.162Z,25.77
2023-02-06T21:23:24.558Z,24.33
2023-02-06T21:25:52.731Z,26.43
2023-02-06T21:28:20.252Z,25.87
2023-02-06T21:30:47.923Z,27.37
2023-02-06T21:33:15.370Z,24.17
2023-02-06T21:35:49.559Z,22.80
2023-02-06T21:38:16.471Z,20.57
2023-02-06T21:40:43.870Z,20.93
2023-02-06T21:43:11.218Z,27.43
2023-02-06T21:45:39.886Z,19.50
2023-02-06T21:48:07.044Z,21.63
2023-02-06T21:50:34.628Z,20.77
2023-02-06T21:53:02.115Z,19.10
2023-02-06T21:55:31.935Z,20.87
2023-02-06T21:58:02.320Z,18.30
2023-02-06T22:00:29.785Z,18.70
2023-02-06T22:02:56.908Z,20.93
2023-02-06T22:05:24.551Z,19.57
2023-02-06T22:07:51.594Z,17.43
2023-02-06T22:10:18.772Z,15.23
2023-02-06T22:12:49.605Z,16.33
2023-02-06T22:15:16.670Z,14.77
2023-02-06T22:17:43.692Z,19.23
2023-02-06T22:20:11.128Z,25.97
2023-02-06T22:22:39.230Z,25.17
2023-02-06T22:25:08.499Z,26.93
2023-02-06T22:27:36.068Z,15.27
2023-02-06T22:30:03.760Z,25.07
2023-02-06T22:32:30.852Z,33.23
2023-02-06T22:35:01.087Z,22.80
2023-02-06T22:37:30.661Z,25.57
2023-02-06T22:39:57.924Z,39.97
2023-02-06T22:42:24.990Z,34.77
2023-02-06T22:44:52.197Z,17.07
2023-02-06T22:47:19.300Z,16.37
2023-02-06T22:49:46.508Z,16.27
2023-02-06T22:52:32.205Z,16.20
2023-02-06T22:54:59.495Z,14.33
2023-02-06T22:57:28.195Z,15.80
2023-02-06T22:59:55.156Z,14.73
2023-02-06T23:02:22.475Z,15.13
2023-02-06T23:04:49.549Z,16.73
2023-02-06T23:07:16.424Z,16.13
2023-02-06T23:09:43.676Z,17.60
2023-02-06T23:12:12.011Z,19.13
2023-02-06T23:14:38.974Z,19.00
2023-02-06T23:17:06.070Z,22.23
2023-02-06T23:19:33.112Z,22.33
2023-02-06T23:22:00.694Z,22.20
2023-02-06T23:24:28.046Z,21.87
2023-02-06T23:26:55.644Z,22.40
2023-02-06T23:29:23.794Z,22.80
2023-02-06T23:31:51.253Z,20.63
2023-02-06T23:34:18.583Z,19.90
2023-02-06T23:36:46.647Z,20.37
2023-02-06T23:39:13.767Z,20.60
2023-02-06T23:41:41.052Z,23.17
2023-02-06T23:44:08.027Z,22.40
2023-02-06T23:46:36.932Z,21.30
2023-02-06T23:49:04.443Z,17.37
2023-02-06T23:51:32.599Z,18.30
2023-02-06T23:53:59.224Z,18.60
2023-02-06T23:56:27.833Z,19.93
2023-02-06T23:58:55.759Z,22.17
